Arroyo, Texas
Current Conditions -  °F | °C
As of 9:52 AM on Wednesday 26 Nov 2014 (Local Time) from KHRL Reporting Station
Clear Clear  
Wind Chill: 62°   Ceiling: Unl
Heat Index: 62°   Visibility: 10mi
Dew Point: 48°   Wind: 12mph
Humidity: 60%   Direction: 190°S
Pressure: 30.32"   Gusts: NA
Location:  26.2089°N, 97.6849°W
Report Text: KHRL 261552Z 19010KT 10SM CLR 17/09 A3032 RMK AO2 SLP268 T01670089
Loading
Personal Weather Stations






























Interactive Weather Map New forecast layout! Learn more

10-Day Weather Forecast

Advertisements
Track Severe Weather on mobile